createdAt,value
2019-06-20T00:01:53.945Z,16.79
2019-06-20T00:05:59.086Z,16.79
2019-06-20T00:10:04.574Z,16.87
2019-06-20T00:14:09.687Z,16.72
2019-06-20T00:18:14.861Z,16.75
2019-06-20T00:22:19.996Z,16.67
2019-06-20T00:26:25.048Z,16.67
2019-06-20T00:30:30.603Z,16.57
2019-06-20T00:34:35.747Z,16.55
2019-06-20T00:38:40.766Z,16.57
2019-06-20T00:42:45.821Z,16.51
2019-06-20T00:46:50.829Z,16.46
2019-06-20T00:50:55.900Z,16.47
2019-06-20T00:55:01.022Z,16.53
2019-06-20T00:59:06.124Z,16.56
2019-06-20T01:03:11.210Z,16.61
2019-06-20T01:07:16.292Z,16.61
2019-06-20T01:11:21.351Z,16.62
2019-06-20T01:15:26.563Z,16.64
2019-06-20T01:19:31.640Z,16.63
2019-06-20T01:23:36.779Z,16.62
2019-06-20T01:27:42.862Z,16.64
2019-06-20T01:31:47.912Z,16.59
2019-06-20T01:35:52.926Z,16.59
2019-06-20T01:39:58.013Z,16.56
2019-06-20T01:44:03.109Z,16.56
2019-06-20T01:48:08.337Z,16.57
2019-06-20T01:52:13.490Z,16.55
2019-06-20T01:56:18.586Z,16.55
2019-06-20T02:00:45.772Z,16.53
2019-06-20T02:04:50.962Z,16.52
2019-06-20T02:08:56.121Z,16.56
2019-06-20T02:13:01.234Z,16.56
2019-06-20T02:17:07.419Z,16.55
2019-06-20T02:21:12.492Z,16.53
2019-06-20T02:25:17.571Z,16.48
2019-06-20T02:29:22.712Z,16.38
2019-06-20T02:33:27.841Z,16.36
2019-06-20T02:37:32.955Z,16.41
2019-06-20T02:41:38.229Z,16.45
2019-06-20T02:45:43.395Z,16.52
2019-06-20T02:49:48.479Z,16.46
2019-06-20T02:53:53.559Z,16.53
2019-06-20T02:57:58.690Z,16.56
2019-06-20T03:02:03.851Z,16.61
2019-06-20T03:06:08.996Z,16.66
2019-06-20T03:10:14.293Z,16.59
2019-06-20T03:14:19.317Z,16.65
2019-06-20T03:18:24.321Z,16.65
2019-06-20T03:22:29.409Z,16.65
2019-06-20T03:26:34.506Z,16.67
2019-06-20T03:30:39.588Z,16.70
2019-06-20T03:34:44.712Z,16.70
2019-06-20T03:38:49.742Z,16.64
2019-06-20T03:42:54.875Z,16.63
2019-06-20T03:46:59.944Z,16.59
2019-06-20T03:51:05.033Z,16.63
2019-06-20T03:55:11.800Z,16.62
2019-06-20T03:59:16.960Z,16.55
2019-06-20T04:03:22.211Z,16.52
2019-06-20T04:07:27.429Z,16.44
2019-06-20T04:11:32.553Z,16.47
2019-06-20T04:15:37.687Z,16.54
2019-06-20T04:19:43.101Z,16.61
2019-06-20T04:23:48.226Z,16.45
2019-06-20T04:27:53.295Z,16.61
2019-06-20T04:31:58.385Z,16.66
2019-06-20T04:36:03.462Z,16.63
2019-06-20T04:40:09.268Z,16.71
2019-06-20T04:44:14.400Z,16.60
2019-06-20T04:48:19.519Z,16.65
2019-06-20T04:52:24.775Z,16.80
2019-06-20T04:56:29.823Z,16.84
2019-06-20T05:00:35.015Z,16.81
2019-06-20T05:04:40.193Z,16.70
2019-06-20T05:08:45.328Z,16.71
2019-06-20T05:12:51.372Z,16.85
2019-06-20T05:16:56.532Z,16.86
2019-06-20T05:21:01.644Z,16.93
2019-06-20T05:25:07.047Z,16.98
2019-06-20T05:29:12.180Z,17.00
2019-06-20T05:33:17.294Z,17.03
2019-06-20T05:37:22.392Z,16.86
2019-06-20T05:41:27.553Z,16.78
2019-06-20T05:45:32.685Z,16.84
2019-06-20T05:49:37.743Z,16.80
2019-06-20T05:53:42.892Z,16.71
2019-06-20T05:57:48.099Z,16.86
2019-06-20T06:01:56.235Z,17.05
2019-06-20T06:06:00.206Z,17.17
2019-06-20T06:10:06.485Z,17.13
2019-06-20T06:14:13.819Z,16.97
2019-06-20T06:18:19.170Z,17.34
2019-06-20T06:22:24.274Z,17.36
2019-06-20T06:26:29.390Z,17.34
2019-06-20T06:30:34.583Z,17.28
2019-06-20T06:34:39.653Z,17.17
2019-06-20T06:38:44.762Z,17.20
2019-06-20T06:42:49.974Z,17.17
2019-06-20T06:46:59.484Z,17.31
2019-06-20T06:51:02.165Z,17.57
2019-06-20T06:55:08.806Z,17.65
2019-06-20T06:59:13.908Z,17.58
2019-06-20T07:03:19.005Z,17.87
2019-06-20T07:07:25.123Z,17.97
2019-06-20T07:11:30.320Z,18.16
2019-06-20T07:15:35.519Z,17.77
2019-06-20T07:19:40.615Z,17.81
2019-06-20T07:23:52.591Z,17.68
2019-06-20T07:27:57.803Z,17.83
2019-06-20T07:32:02.955Z,17.98
2019-06-20T07:36:09.037Z,17.90
2019-06-20T07:40:14.865Z,18.22
2019-06-20T07:44:20.047Z,18.21
2019-06-20T07:48:25.234Z,18.30
2019-06-20T07:52:30.433Z,17.59
2019-06-20T07:56:35.531Z,17.68
2019-06-20T08:00:40.646Z,17.77
2019-06-20T08:04:45.925Z,18.51
2019-06-20T08:08:51.122Z,18.66
2019-06-20T08:12:56.346Z,18.53
2019-06-20T08:17:01.448Z,18.19
2019-06-20T08:21:06.736Z,18.39
2019-06-20T08:25:12.889Z,18.68
2019-06-20T08:29:21.106Z,18.66
2019-06-20T08:33:25.025Z,18.57
2019-06-20T08:37:30.118Z,19.14
2019-06-20T08:41:35.329Z,18.91
2019-06-20T08:45:42.411Z,18.90
2019-06-20T08:49:47.494Z,19.12
2019-06-20T08:53:52.595Z,19.61
2019-06-20T08:58:01.010Z,20.61
2019-06-20T09:02:06.363Z,20.27
2019-06-20T09:06:11.520Z,19.86
2019-06-20T09:10:17.456Z,19.56
2019-06-20T09:14:22.728Z,20.03
2019-06-20T09:18:27.889Z,20.15
2019-06-20T09:22:33.003Z,20.08
2019-06-20T09:26:38.135Z,20.17
2019-06-20T09:30:43.513Z,19.96
2019-06-20T09:34:48.698Z,19.99
2019-06-20T09:38:55.074Z,20.60
2019-06-20T09:43:00.170Z,21.23
2019-06-20T09:47:06.366Z,22.34
2019-06-20T09:51:11.539Z,21.83
2019-06-20T09:55:16.921Z,22.42
2019-06-20T09:59:27.490Z,22.02
2019-06-20T10:03:28.912Z,24.21
2019-06-20T10:07:34.111Z,23.87
2019-06-20T10:11:39.249Z,24.26
2019-06-20T10:15:46.678Z,22.83
2019-06-20T10:19:52.105Z,24.19
2019-06-20T10:23:57.257Z,24.21
2019-06-20T10:28:02.378Z,24.37
2019-06-20T10:32:07.531Z,23.85
2019-06-20T10:36:13.833Z,22.83
2019-06-20T10:40:20.898Z,21.76
2019-06-20T10:44:26.046Z,21.01
2019-06-20T10:48:31.407Z,21.19
2019-06-20T10:52:36.693Z,20.90
2019-06-20T10:56:47.135Z,20.42
2019-06-20T11:00:52.397Z,20.27
2019-06-20T11:04:57.927Z,20.51
2019-06-20T11:09:04.313Z,20.62
2019-06-20T11:13:09.497Z,21.30
2019-06-20T11:17:14.751Z,21.42
2019-06-20T11:21:19.942Z,21.08
2019-06-20T11:25:25.523Z,21.02
2019-06-20T11:29:31.013Z,21.99
2019-06-20T11:33:38.245Z,23.67
2019-06-20T11:37:44.774Z,23.59
2019-06-20T11:41:50.013Z,21.67
2019-06-20T11:45:55.338Z,21.15
2019-06-20T11:50:00.420Z,22.21
2019-06-20T11:54:05.585Z,22.65
2019-06-20T11:58:10.728Z,21.81
2019-06-20T12:02:15.814Z,21.58
2019-06-20T12:06:20.994Z,21.07
2019-06-20T12:10:26.188Z,21.03
2019-06-20T12:14:31.313Z,21.09
2019-06-20T12:18:36.469Z,21.21
2019-06-20T12:22:43.118Z,21.27
2019-06-20T12:26:48.685Z,20.82
2019-06-20T12:30:55.367Z,20.75
2019-06-20T12:35:00.766Z,20.54
2019-06-20T12:39:06.981Z,20.28
2019-06-20T12:43:13.785Z,20.35
2019-06-20T12:47:18.966Z,19.64
2019-06-20T12:51:26.106Z,19.47
2019-06-20T12:55:31.302Z,19.46
2019-06-20T12:59:38.069Z,19.25
2019-06-20T13:03:43.667Z,19.23
2019-06-20T13:07:50.349Z,19.00
2019-06-20T13:11:55.722Z,18.85
2019-06-20T13:16:00.844Z,18.55
2019-06-20T13:20:06.913Z,18.38
2019-06-20T13:24:12.052Z,18.16
2019-06-20T13:28:17.213Z,18.00
2019-06-20T13:32:22.353Z,17.96
2019-06-20T13:36:27.501Z,17.69
2019-06-20T13:40:32.676Z,17.78
2019-06-20T13:44:37.803Z,18.19
2019-06-20T13:48:44.066Z,18.48
2019-06-20T13:52:51.247Z,18.84
2019-06-20T13:56:56.860Z,19.35
2019-06-20T14:01:02.050Z,19.33
2019-06-20T14:05:07.233Z,19.39
2019-06-20T14:09:12.355Z,19.08
2019-06-20T14:13:19.587Z,19.26
2019-06-20T14:17:24.400Z,19.45
2019-06-20T14:21:31.858Z,19.32
2019-06-20T14:25:37.204Z,19.16
2019-06-20T14:29:43.718Z,19.26
2019-06-20T14:33:50.635Z,19.42
2019-06-20T14:37:55.974Z,19.44
2019-06-20T14:42:01.020Z,20.08
2019-06-20T14:46:06.164Z,20.27
2019-06-20T14:50:11.584Z,20.51
2019-06-20T14:54:19.676Z,20.56
2019-06-20T14:58:24.048Z,20.92
2019-06-20T15:02:38.406Z,21.88
2019-06-20T15:06:36.474Z,21.48
2019-06-20T15:10:41.748Z,22.27
2019-06-20T15:14:48.330Z,21.71
2019-06-20T15:18:55.332Z,22.69
2019-06-20T15:23:00.773Z,22.40
2019-06-20T15:27:10.823Z,21.30
2019-06-20T15:31:18.624Z,20.86
2019-06-20T15:35:23.770Z,20.40
2019-06-20T15:39:28.793Z,21.06
2019-06-20T15:43:33.798Z,21.40
2019-06-20T15:47:39.000Z,21.20
2019-06-20T15:51:44.079Z,20.69
2019-06-20T15:55:49.337Z,20.47
2019-06-20T15:59:54.647Z,20.93
2019-06-20T16:03:59.887Z,20.58
2019-06-20T16:08:05.076Z,20.73
2019-06-20T16:12:10.218Z,20.81
2019-06-20T16:16:15.307Z,20.64
2019-06-20T16:20:21.541Z,20.46
2019-06-20T16:24:26.567Z,20.56
2019-06-20T16:28:34.447Z,20.29
2019-06-20T16:32:39.667Z,21.45
2019-06-20T16:36:44.849Z,20.92
2019-06-20T16:40:51.022Z,21.05
2019-06-20T16:44:56.171Z,21.05
2019-06-20T16:49:01.291Z,21.05
2019-06-20T16:53:06.512Z,20.70
2019-06-20T16:57:11.621Z,21.39
2019-06-20T17:01:16.765Z,21.23
2019-06-20T17:05:22.180Z,20.65
2019-06-20T17:09:27.325Z,20.25
2019-06-20T17:13:32.428Z,20.36
2019-06-20T17:17:37.572Z,20.18
2019-06-20T17:21:43.664Z,19.66
2019-06-20T17:25:48.849Z,19.48
2019-06-20T17:29:54.025Z,19.44
2019-06-20T17:33:59.544Z,18.54
2019-06-20T17:38:04.629Z,17.77
2019-06-20T17:42:10.102Z,17.67
2019-06-20T17:46:15.512Z,17.56
2019-06-20T17:50:20.747Z,17.68
2019-06-20T17:54:25.857Z,17.76
2019-06-20T17:58:30.951Z,17.96
2019-06-20T18:02:35.943Z,18.02
2019-06-20T18:06:41.130Z,18.18
2019-06-20T18:10:46.281Z,18.44
2019-06-20T18:14:51.298Z,18.64
2019-06-20T18:18:56.620Z,18.39
2019-06-20T18:23:05.481Z,18.19
2019-06-20T18:27:11.088Z,18.73
2019-06-20T18:31:17.851Z,18.82
2019-06-20T18:35:23.060Z,18.97
2019-06-20T18:39:28.266Z,18.79
2019-06-20T18:43:33.374Z,18.82
2019-06-20T18:47:38.611Z,18.51
2019-06-20T18:51:44.070Z,18.95
2019-06-20T18:55:49.270Z,19.30
2019-06-20T18:59:54.386Z,18.92
2019-06-20T19:03:59.569Z,18.56
2019-06-20T19:08:08.525Z,18.56
2019-06-20T19:12:13.762Z,18.36
2019-06-20T19:16:18.912Z,18.18
2019-06-20T19:20:24.047Z,17.74
2019-06-20T19:24:29.195Z,17.53
2019-06-20T19:28:34.398Z,17.77
2019-06-20T19:32:40.447Z,17.59
2019-06-20T19:36:45.601Z,17.52
2019-06-20T19:40:51.227Z,17.37
2019-06-20T19:44:56.654Z,17.27
2019-06-20T19:49:01.753Z,17.07
2019-06-20T19:53:06.876Z,17.05
2019-06-20T19:57:12.237Z,16.82
2019-06-20T20:01:17.377Z,16.61
2019-06-20T20:05:22.427Z,16.68
2019-06-20T20:09:27.779Z,16.70
2019-06-20T20:13:32.932Z,16.70
2019-06-20T20:17:38.066Z,16.55
2019-06-20T20:21:43.186Z,16.37
2019-06-20T20:25:48.351Z,16.28
2019-06-20T20:29:53.432Z,16.37
2019-06-20T20:33:58.668Z,16.22
2019-06-20T20:38:03.731Z,16.37
2019-06-20T20:42:08.843Z,16.40
2019-06-20T20:46:14.294Z,16.09
2019-06-20T20:50:19.683Z,16.02
2019-06-20T20:54:24.793Z,15.74
2019-06-20T20:58:29.879Z,15.72
2019-06-20T21:02:34.933Z,15.72
2019-06-20T21:06:40.043Z,15.73
2019-06-20T21:10:45.816Z,15.62
2019-06-20T21:14:50.911Z,15.50
2019-06-20T21:18:56.021Z,15.44
2019-06-20T21:23:01.453Z,15.44
2019-06-20T21:27:06.576Z,15.44
2019-06-20T21:31:11.705Z,15.41
2019-06-20T21:35:16.989Z,15.35
2019-06-20T21:39:22.295Z,15.23
2019-06-20T21:43:27.642Z,15.07
2019-06-20T21:47:32.755Z,15.07
2019-06-20T21:51:37.831Z,14.98
2019-06-20T21:55:42.951Z,14.93
2019-06-20T21:59:48.433Z,14.84
2019-06-20T22:03:53.565Z,14.76
2019-06-20T22:07:58.661Z,14.73
2019-06-20T22:12:03.816Z,14.63
2019-06-20T22:16:08.971Z,14.59
2019-06-20T22:20:15.583Z,14.50
2019-06-20T22:24:20.584Z,14.59
2019-06-20T22:28:25.674Z,14.67
2019-06-20T22:32:30.845Z,14.74
2019-06-20T22:36:40.029Z,14.83
2019-06-20T22:40:42.681Z,14.78
2019-06-20T22:44:47.818Z,14.74
2019-06-20T22:48:52.999Z,14.66
2019-06-20T22:52:58.149Z,14.65
2019-06-20T22:57:03.268Z,14.67
2019-06-20T23:01:08.379Z,14.80
2019-06-20T23:05:13.568Z,14.66
2019-06-20T23:09:18.727Z,14.58
2019-06-20T23:13:23.851Z,14.48
2019-06-20T23:17:28.951Z,14.44
2019-06-20T23:21:34.039Z,14.41
2019-06-20T23:25:40.806Z,14.45
2019-06-20T23:29:45.960Z,14.43
2019-06-20T23:33:51.113Z,14.39
2019-06-20T23:37:56.283Z,14.51
2019-06-20T23:42:01.358Z,14.53
2019-06-20T23:46:06.440Z,14.61
2019-06-20T23:50:18.491Z,14.76
2019-06-20T23:54:26.951Z,14.73
2019-06-20T23:58:32.150Z,14.77
